M T Hulin — 9HRW9 — position and weather

sailwx.info

Track history (hours):
 
Tides and Currents Weather Stations Pressure Air Temp Water Temp Dewpoint Dewpoint Depression Visibility Wind Speed Wind Dir Waves Ship Positions

M T Hulin

Last reported at 2018-Jan-18 13:30 UTC. Time now 2018-Jan-18 13:49 UTC.
Position N 37°07' W 009°30'.

Length 132 m; draft 7.7 m.

Type: Ship. MMSI: 249437000.

Date/timePositionNaut miles runAvg speedWind from/ knotsBaromVisibWave heightAir tempDewpointWater temp
2018-Jan-18 13:30N 37°07' W 009°30'510.4
2018-Jan-18 13:00N 37°02' W 009°29'510.4
2018-Jan-18 12:31N 36°57' W 009°27'510.3
2018-Jan-18 12:00N 36°52' W 009°25'510.5
2018-Jan-18 11:30N 36°47' W 009°22'1610.6
2018-Jan-18 10:00N 36°39' W 009°05'611.4
2018-Jan-18 09:30N 36°38' W 008°58'611.5
2018-Jan-18 09:00N 36°37' W 008°51'611.7
2018-Jan-18 08:30N 36°36' W 008°44'611.9
2018-Jan-18 08:00N 36°35' W 008°37'912.3
2018-Jan-18 07:16N 36°33' W 008°25'  
2018-Jan-12 11:40N 42°52' E 007°02'2 9.1
2018-Jan-12 11:30N 42°53' E 007°04'5 9.0
2018-Jan-12 11:00N 42°56' E 007°08'4 9.0
2018-Jan-12 10:30N 42°59' E 007°13'5 9.3
2018-Jan-12 10:00N 43°02' E 007°17'5 9.2
2018-Jan-12 09:27N 43°06' E 007°22'4 9.5
2018-Jan-12 09:00N 43°09' E 007°26'7 9.9
2018-Jan-12 08:16N 43°14' E 007°33'3 9.9
2018-Jan-12 07:58N 43°17' E 007°35'510.0
2018-Jan-12 07:27N 43°20' E 007°41'3811.1
2018-Jan-12 03:59N 43°45' E 008°22'511.1
2018-Jan-12 03:30N 43°48' E 008°27'511.0
2018-Jan-12 03:00N 43°53' E 008°31'511.0
2018-Jan-12 02:30N 43°57' E 008°36'611.1
2018-Jan-12 02:00N 44°02' E 008°40'611.1
2018-Jan-12 01:30N 44°06' E 008°44'611.4
2018-Jan-12 01:00N 44°11' E 008°49'611.1
2018-Jan-12 00:30N 44°15' E 008°53'510.9
2018-Jan-12 00:00N 44°20' E 008°58'4 8.2
2018-Jan-11 23:31N 44°24' E 008°55'2 2.9
2018-Jan-11 22:59N 44°24' E 008°53'0 0.0
2018-Jan-11 22:26N 44°24' E 008°53'0 0.0
2018-Jan-11 21:59N 44°24' E 008°53'0 0.0
2018-Jan-11 21:23N 44°24' E 008°53'0 0.0
2018-Jan-11 20:59N 44°24' E 008°53'0 0.0
2018-Jan-11 20:26N 44°24' E 008°53'0 0.0
2018-Jan-11 19:59N 44°24' E 008°53'0 0.0
2018-Jan-11 19:29N 44°24' E 008°53'0 0.0
2018-Jan-11 18:56N 44°24' E 008°53'0 0.0
2018-Jan-11 18:29N 44°24' E 008°53'0 0.0
2018-Jan-11 17:56N 44°24' E 008°53'0 0.0
2018-Jan-11 17:26N 44°24' E 008°53'0 0.0
2018-Jan-11 16:59N 44°24' E 008°53'0 0.0
2018-Jan-11 16:26N 44°24' E 008°53'0 0.0
2018-Jan-11 15:56N 44°24' E 008°53'0 0.0
2018-Jan-11 15:29N 44°24' E 008°53'0 0.0
2018-Jan-11 14:59N 44°24' E 008°53'0 0.0
2018-Jan-11 14:29N 44°24' E 008°53'0 0.1
2018-Jan-11 14:00N 44°24' E 008°54'1 1.3
2018-Jan-11 13:30N 44°24' E 008°54'4 7.0
2018-Jan-11 13:00N 44°22' E 008°58'1 1.7
2018-Jan-11 12:30N 44°21' E 008°59'1 1.1
2018-Jan-11 12:00N 44°21' E 008°60'611.1
2018-Jan-11 11:30N 44°16' E 008°55'612.0
2018-Jan-11 11:01N 44°12' E 008°50'612.1
2018-Jan-11 10:30N 44°06' E 008°46'611.9
2018-Jan-11 10:00N 44°02' E 008°41'612.3
2018-Jan-11 09:30N 43°57' E 008°36'612.3
2018-Jan-11 09:00N 43°52' E 008°31'5711.8
2018-Jan-11 04:11N 43°15' E 007°31'212.0
2018-Jan-11 04:00N 43°13' E 007°29'612.3
2018-Jan-11 03:28N 43°09' E 007°22'612.5
2018-Jan-11 02:59N 43°05' E 007°16'612.6
2018-Jan-11 02:29N 43°01' E 007°10'24212.7
2018-Jan-10 07:29N 40°24' E 003°03'1713.8
2018-Jan-10 06:15N 40°13' E 002°46'513.6
2018-Jan-10 05:54N 40°10' E 002°41'20413.1
2018-Jan-09 14:20N 37°44' W 000°21'413.4
2018-Jan-09 14:00N 37°40' W 000°25'713.6
2018-Jan-09 13:30N 37°34' W 000°30'713.2
2018-Jan-09 12:59N 37°29' W 000°35'713.3
2018-Jan-09 12:30N 37°25' W 000°41'613.0
2018-Jan-09 12:00N 37°21' W 000°48'712.9
2018-Jan-09 11:29N 37°16' W 000°54'16512.7
2018-Jan-08 22:29N 36°12' W 004°03'714.9
2018-Jan-08 22:00N 36°12' W 004°12'714.8
2018-Jan-08 21:30N 36°10' W 004°21'815.3
2018-Jan-08 21:01N 36°10' W 004°30'714.6
2018-Jan-08 20:30N 36°09' W 004°39'714.1
2018-Jan-08 20:01N 36°08' W 004°48'2413.6
2018-Jan-08 18:16N 36°05' W 005°17'  
Track history (hours):
 
Tides and Currents Weather Stations Pressure Air Temp Water Temp Dewpoint Dewpoint Depression Visibility Wind Speed Wind Dir Waves Ship Positions

M T Hulin

Last reported at 2018-Jan-18 13:30 UTC. Time now 2018-Jan-18 13:49 UTC.
Position N 37°07' W 009°30'.

Length 132 m; draft 7.7 m.

Type: Ship. MMSI: 249437000.

Date/timePositionNaut miles runAvg speedWind from/ knotsBaromVisibWave heightAir tempDewpointWater temp
2018-Jan-18 13:30N 37°07' W 009°30'510.4
2018-Jan-18 13:00N 37°02' W 009°29'510.4
2018-Jan-18 12:31N 36°57' W 009°27'510.3
2018-Jan-18 12:00N 36°52' W 009°25'510.5
2018-Jan-18 11:30N 36°47' W 009°22'1610.6
2018-Jan-18 10:00N 36°39' W 009°05'611.4
2018-Jan-18 09:30N 36°38' W 008°58'611.5
2018-Jan-18 09:00N 36°37' W 008°51'611.7
2018-Jan-18 08:30N 36°36' W 008°44'611.9
2018-Jan-18 08:00N 36°35' W 008°37'912.3
2018-Jan-18 07:16N 36°33' W 008°25'  
2018-Jan-12 11:40N 42°52' E 007°02'2 9.1
2018-Jan-12 11:30N 42°53' E 007°04'5 9.0
2018-Jan-12 11:00N 42°56' E 007°08'4 9.0
2018-Jan-12 10:30N 42°59' E 007°13'5 9.3
2018-Jan-12 10:00N 43°02' E 007°17'5 9.2
2018-Jan-12 09:27N 43°06' E 007°22'4 9.5
2018-Jan-12 09:00N 43°09' E 007°26'7 9.9
2018-Jan-12 08:16N 43°14' E 007°33'3 9.9
2018-Jan-12 07:58N 43°17' E 007°35'510.0
2018-Jan-12 07:27N 43°20' E 007°41'3811.1
2018-Jan-12 03:59N 43°45' E 008°22'511.1
2018-Jan-12 03:30N 43°48' E 008°27'511.0
2018-Jan-12 03:00N 43°53' E 008°31'511.0
2018-Jan-12 02:30N 43°57' E 008°36'611.1
2018-Jan-12 02:00N 44°02' E 008°40'611.1
2018-Jan-12 01:30N 44°06' E 008°44'611.4
2018-Jan-12 01:00N 44°11' E 008°49'611.1
2018-Jan-12 00:30N 44°15' E 008°53'510.9
2018-Jan-12 00:00N 44°20' E 008°58'4 8.2
2018-Jan-11 23:31N 44°24' E 008°55'2 2.9
2018-Jan-11 22:59N 44°24' E 008°53'0 0.0
2018-Jan-11 22:26N 44°24' E 008°53'0 0.0
2018-Jan-11 21:59N 44°24' E 008°53'0 0.0
2018-Jan-11 21:23N 44°24' E 008°53'0 0.0
2018-Jan-11 20:59N 44°24' E 008°53'0 0.0
2018-Jan-11 20:26N 44°24' E 008°53'0 0.0
2018-Jan-11 19:59N 44°24' E 008°53'0 0.0
2018-Jan-11 19:29N 44°24' E 008°53'0 0.0
2018-Jan-11 18:56N 44°24' E 008°53'0 0.0
2018-Jan-11 18:29N 44°24' E 008°53'0 0.0
2018-Jan-11 17:56N 44°24' E 008°53'0 0.0
2018-Jan-11 17:26N 44°24' E 008°53'0 0.0
2018-Jan-11 16:59N 44°24' E 008°53'0 0.0
2018-Jan-11 16:26N 44°24' E 008°53'0 0.0
2018-Jan-11 15:56N 44°24' E 008°53'0 0.0
2018-Jan-11 15:29N 44°24' E 008°53'0 0.0
2018-Jan-11 14:59N 44°24' E 008°53'0 0.0
2018-Jan-11 14:29N 44°24' E 008°53'0 0.1
2018-Jan-11 14:00N 44°24' E 008°54'1 1.3
2018-Jan-11 13:30N 44°24' E 008°54'4 7.0
2018-Jan-11 13:00N 44°22' E 008°58'1 1.7
2018-Jan-11 12:30N 44°21' E 008°59'1 1.1
2018-Jan-11 12:00N 44°21' E 008°60'611.1
2018-Jan-11 11:30N 44°16' E 008°55'612.0
2018-Jan-11 11:01N 44°12' E 008°50'612.1
2018-Jan-11 10:30N 44°06' E 008°46'611.9
2018-Jan-11 10:00N 44°02' E 008°41'612.3
2018-Jan-11 09:30N 43°57' E 008°36'612.3
2018-Jan-11 09:00N 43°52' E 008°31'5711.8
2018-Jan-11 04:11N 43°15' E 007°31'212.0
2018-Jan-11 04:00N 43°13' E 007°29'612.3
2018-Jan-11 03:28N 43°09' E 007°22'612.5
2018-Jan-11 02:59N 43°05' E 007°16'612.6
2018-Jan-11 02:29N 43°01' E 007°10'24212.7
2018-Jan-10 07:29N 40°24' E 003°03'1713.8
2018-Jan-10 06:15N 40°13' E 002°46'513.6
2018-Jan-10 05:54N 40°10' E 002°41'20413.1
2018-Jan-09 14:20N 37°44' W 000°21'413.4
2018-Jan-09 14:00N 37°40' W 000°25'713.6
2018-Jan-09 13:30N 37°34' W 000°30'713.2
2018-Jan-09 12:59N 37°29' W 000°35'713.3
2018-Jan-09 12:30N 37°25' W 000°41'613.0
2018-Jan-09 12:00N 37°21' W 000°48'712.9
2018-Jan-09 11:29N 37°16' W 000°54'16512.7
2018-Jan-08 22:29N 36°12' W 004°03'714.9
2018-Jan-08 22:00N 36°12' W 004°12'714.8
2018-Jan-08 21:30N 36°10' W 004°21'815.3
2018-Jan-08 21:01N 36°10' W 004°30'714.6
2018-Jan-08 20:30N 36°09' W 004°39'714.1
2018-Jan-08 20:01N 36°08' W 004°48'2413.6
2018-Jan-08 18:16N 36°05' W 005°17'  

Dump ship's entire track history